sensor_id;sensor_type;location;lat;lon;timestamp;P1;durP1;ratioP1;P2;durP2;ratioP2
17959;SDS011;9105;53.552;9.980;2023-10-09T00:01:17;6.35;;;3.42;;
17959;SDS011;9105;53.552;9.980;2023-10-09T00:03:46;4.80;;;3.33;;
17959;SDS011;9105;53.552;9.980;2023-10-09T00:06:18;7.07;;;3.35;;
17959;SDS011;9105;53.552;9.980;2023-10-09T00:08:53;6.55;;;3.40;;
17959;SDS011;9105;53.552;9.980;2023-10-09T00:11:20;6.28;;;3.60;;
17959;SDS011;9105;53.552;9.980;2023-10-09T00:13:46;7.07;;;3.20;;
17959;SDS011;9105;53.552;9.980;2023-10-09T00:16:16;7.18;;;3.50;;
17959;SDS011;9105;53.552;9.980;2023-10-09T00:18:49;7.40;;;3.55;;
17959;SDS011;9105;53.552;9.980;2023-10-09T00:21:16;5.03;;;3.40;;
17959;SDS011;9105;53.552;9.980;2023-10-09T00:23:45;7.05;;;3.13;;
17959;SDS011;9105;53.552;9.980;2023-10-09T00:26:17;13.32;;;3.63;;
17959;SDS011;9105;53.552;9.980;2023-10-09T00:28:43;7.30;;;3.83;;
17959;SDS011;9105;53.552;9.980;2023-10-09T00:31:09;5.13;;;3.45;;
17959;SDS011;9105;53.552;9.980;2023-10-09T00:33:40;7.53;;;3.67;;
17959;SDS011;9105;53.552;9.980;2023-10-09T00:36:07;6.65;;;3.30;;
17959;SDS011;9105;53.552;9.980;2023-10-09T00:38:36;4.07;;;3.50;;
17959;SDS011;9105;53.552;9.980;2023-10-09T00:41:04;7.75;;;3.20;;
17959;SDS011;9105;53.552;9.980;2023-10-09T00:43:32;3.63;;;2.25;;
17959;SDS011;9105;53.552;9.980;2023-10-09T00:46:00;6.90;;;3.28;;
17959;SDS011;9105;53.552;9.980;2023-10-09T00:48:45;5.97;;;3.38;;
17959;SDS011;9105;53.552;9.980;2023-10-09T00:51:13;11.52;;;3.60;;
17959;SDS011;9105;53.552;9.980;2023-10-09T00:54:04;6.45;;;3.28;;
17959;SDS011;9105;53.552;9.980;2023-10-09T00:56:39;7.40;;;2.57;;
17959;SDS011;9105;53.552;9.980;2023-10-09T00:59:10;7.55;;;3.60;;
17959;SDS011;9105;53.552;9.980;2023-10-09T01:01:40;7.88;;;3.83;;
17959;SDS011;9105;53.552;9.980;2023-10-09T01:04:10;8.05;;;3.58;;
17959;SDS011;9105;53.552;9.980;2023-10-09T01:06:44;6.82;;;3.70;;
17959;SDS011;9105;53.552;9.980;2023-10-09T01:09:29;6.45;;;3.55;;
17959;SDS011;9105;53.552;9.980;2023-10-09T01:12:01;6.22;;;3.45;;
17959;SDS011;9105;53.552;9.980;2023-10-09T01:14:26;5.40;;;3.05;;
17959;SDS011;9105;53.552;9.980;2023-10-09T01:16:53;9.88;;;4.15;;
17959;SDS011;9105;53.552;9.980;2023-10-09T01:19:19;5.35;;;3.03;;
17959;SDS011;9105;53.552;9.980;2023-10-09T01:24:15;6.82;;;3.42;;
17959;SDS011;9105;53.552;9.980;2023-10-09T01:26:42;8.35;;;3.33;;
17959;SDS011;9105;53.552;9.980;2023-10-09T01:29:18;7.35;;;3.30;;
17959;SDS011;9105;53.552;9.980;2023-10-09T01:31:49;8.75;;;3.35;;
17959;SDS011;9105;53.552;9.980;2023-10-09T01:34:24;10.93;;;3.90;;
17959;SDS011;9105;53.552;9.980;2023-10-09T01:37:04;7.38;;;3.55;;
17959;SDS011;9105;53.552;9.980;2023-10-09T01:39:44;6.18;;;3.50;;
17959;SDS011;9105;53.552;9.980;2023-10-09T01:42:17;7.43;;;3.35;;
17959;SDS011;9105;53.552;9.980;2023-10-09T01:44:55;7.50;;;3.65;;
17959;SDS011;9105;53.552;9.980;2023-10-09T01:47:23;8.75;;;3.63;;
17959;SDS011;9105;53.552;9.980;2023-10-09T01:49:51;7.00;;;3.35;;
17959;SDS011;9105;53.552;9.980;2023-10-09T01:52:18;7.93;;;3.85;;
17959;SDS011;9105;53.552;9.980;2023-10-09T01:54:46;9.48;;;3.67;;
17959;SDS011;9105;53.552;9.980;2023-10-09T01:57:14;8.35;;;3.60;;
17959;SDS011;9105;53.552;9.980;2023-10-09T01:59:43;9.63;;;3.63;;
17959;SDS011;9105;53.552;9.980;2023-10-09T02:02:12;9.73;;;4.05;;
17959;SDS011;9105;53.552;9.980;2023-10-09T02:04:53;6.97;;;3.17;;
17959;SDS011;9105;53.552;9.980;2023-10-09T02:07:30;6.65;;;3.13;;
17959;SDS011;9105;53.552;9.980;2023-10-09T02:10:05;5.57;;;3.00;;
17959;SDS011;9105;53.552;9.980;2023-10-09T02:12:36;8.55;;;3.40;;
17959;SDS011;9105;53.552;9.980;2023-10-09T02:15:02;6.75;;;3.05;;
17959;SDS011;9105;53.552;9.980;2023-10-09T02:17:40;6.87;;;3.00;;
17959;SDS011;9105;53.552;9.980;2023-10-09T02:20:17;8.38;;;3.40;;
17959;SDS011;9105;53.552;9.980;2023-10-09T02:22:53;7.60;;;3.38;;
17959;SDS011;9105;53.552;9.980;2023-10-09T02:25:19;9.52;;;3.13;;
17959;SDS011;9105;53.552;9.980;2023-10-09T02:27:47;5.93;;;3.00;;
17959;SDS011;9105;53.552;9.980;2023-10-09T02:30:19;8.43;;;3.20;;
17959;SDS011;9105;53.552;9.980;2023-10-09T02:32:52;6.07;;;3.20;;
17959;SDS011;9105;53.552;9.980;2023-10-09T02:35:24;5.53;;;3.20;;
17959;SDS011;9105;53.552;9.980;2023-10-09T02:38:02;8.38;;;3.60;;
17959;SDS011;9105;53.552;9.980;2023-10-09T02:40:31;6.40;;;3.25;;
17959;SDS011;9105;53.552;9.980;2023-10-09T02:43:05;7.47;;;3.50;;
17959;SDS011;9105;53.552;9.980;2023-10-09T02:45:31;6.82;;;3.10;;
17959;SDS011;9105;53.552;9.980;2023-10-09T02:48:01;7.13;;;2.83;;
17959;SDS011;9105;53.552;9.980;2023-10-09T02:50:37;7.13;;;3.40;;
17959;SDS011;9105;53.552;9.980;2023-10-09T02:53:04;4.88;;;2.65;;
17959;SDS011;9105;53.552;9.980;2023-10-09T02:55:34;10.82;;;3.33;;
17959;SDS011;9105;53.552;9.980;2023-10-09T03:00:33;7.18;;;3.60;;
17959;SDS011;9105;53.552;9.980;2023-10-09T03:03:02;7.60;;;3.33;;
17959;SDS011;9105;53.552;9.980;2023-10-09T03:05:33;5.80;;;2.70;;
17959;SDS011;9105;53.552;9.980;2023-10-09T03:07:59;7.78;;;3.10;;
17959;SDS011;9105;53.552;9.980;2023-10-09T03:10:25;5.88;;;2.72;;
17959;SDS011;9105;53.552;9.980;2023-10-09T03:12:51;5.55;;;2.90;;
17959;SDS011;9105;53.552;9.980;2023-10-09T03:15:21;4.30;;;2.60;;
17959;SDS011;9105;53.552;9.980;2023-10-09T03:20:15;4.45;;;2.40;;
17959;SDS011;9105;53.552;9.980;2023-10-09T03:22:43;7.90;;;2.83;;
17959;SDS011;9105;53.552;9.980;2023-10-09T03:25:10;4.35;;;2.58;;
17959;SDS011;9105;53.552;9.980;2023-10-09T03:27:42;6.30;;;3.15;;
17959;SDS011;9105;53.552;9.980;2023-10-09T03:30:18;4.93;;;2.30;;
17959;SDS011;9105;53.552;9.980;2023-10-09T03:32:53;6.07;;;2.80;;
17959;SDS011;9105;53.552;9.980;2023-10-09T03:35:19;5.45;;;2.45;;
17959;SDS011;9105;53.552;9.980;2023-10-09T03:37:59;5.05;;;2.55;;
17959;SDS011;9105;53.552;9.980;2023-10-09T03:40:56;4.30;;;2.50;;
17959;SDS011;9105;53.552;9.980;2023-10-09T03:43:21;6.13;;;2.95;;
17959;SDS011;9105;53.552;9.980;2023-10-09T03:45:47;8.40;;;2.70;;
17959;SDS011;9105;53.552;9.980;2023-10-09T03:48:19;4.90;;;2.28;;
17959;SDS011;9105;53.552;9.980;2023-10-09T03:50:52;5.85;;;2.30;;
17959;SDS011;9105;53.552;9.980;2023-10-09T03:53:36;4.40;;;2.40;;
17959;SDS011;9105;53.552;9.980;2023-10-09T03:56:02;6.32;;;2.70;;
17959;SDS011;9105;53.552;9.980;2023-10-09T03:58:40;5.30;;;2.35;;
17959;SDS011;9105;53.552;9.980;2023-10-09T04:01:09;7.43;;;2.55;;
17959;SDS011;9105;53.552;9.980;2023-10-09T04:03:40;4.88;;;2.45;;
17959;SDS011;9105;53.552;9.980;2023-10-09T04:06:05;6.65;;;2.90;;
17959;SDS011;9105;53.552;9.980;2023-10-09T04:08:33;4.50;;;1.73;;
17959;SDS011;9105;53.552;9.980;2023-10-09T04:11:00;5.70;;;2.60;;
17959;SDS011;9105;53.552;9.980;2023-10-09T04:13:31;6.57;;;2.60;;
17959;SDS011;9105;53.552;9.980;2023-10-09T04:16:03;7.57;;;2.95;;
17959;SDS011;9105;53.552;9.980;2023-10-09T04:18:54;5.20;;;2.65;;
17959;SDS011;9105;53.552;9.980;2023-10-09T04:21:22;6.00;;;2.00;;
17959;SDS011;9105;53.552;9.980;2023-10-09T04:24:00;4.35;;;2.15;;
17959;SDS011;9105;53.552;9.980;2023-10-09T04:26:50;7.00;;;2.30;;
17959;SDS011;9105;53.552;9.980;2023-10-09T04:29:22;7.53;;;2.45;;
17959;SDS011;9105;53.552;9.980;2023-10-09T04:32:03;4.55;;;2.03;;
17959;SDS011;9105;53.552;9.980;2023-10-09T04:37:01;4.82;;;2.42;;
17959;SDS011;9105;53.552;9.980;2023-10-09T04:39:44;4.68;;;2.45;;
17959;SDS011;9105;53.552;9.980;2023-10-09T04:42:13;8.20;;;2.67;;
17959;SDS011;9105;53.552;9.980;2023-10-09T04:44:49;4.03;;;2.28;;
17959;SDS011;9105;53.552;9.980;2023-10-09T04:47:30;8.23;;;2.53;;
17959;SDS011;9105;53.552;9.980;2023-10-09T04:50:04;4.93;;;2.50;;
17959;SDS011;9105;53.552;9.980;2023-10-09T04:52:42;4.50;;;2.28;;
17959;SDS011;9105;53.552;9.980;2023-10-09T04:55:07;4.43;;;2.42;;
17959;SDS011;9105;53.552;9.980;2023-10-09T05:08:16;5.50;;;2.30;;
17959;SDS011;9105;53.552;9.980;2023-10-09T05:10:59;6.22;;;2.40;;
17959;SDS011;9105;53.552;9.980;2023-10-09T05:13:32;8.90;;;2.47;;
17959;SDS011;9105;53.552;9.980;2023-10-09T05:18:55;6.25;;;2.60;;
17959;SDS011;9105;53.552;9.980;2023-10-09T05:21:24;5.10;;;2.20;;
17959;SDS011;9105;53.552;9.980;2023-10-09T05:23:59;7.13;;;2.78;;
17959;SDS011;9105;53.552;9.980;2023-10-09T05:26:40;5.43;;;2.30;;
17959;SDS011;9105;53.552;9.980;2023-10-09T05:29:13;4.07;;;2.10;;
17959;SDS011;9105;53.552;9.980;2023-10-09T05:31:58;3.85;;;2.05;;
17959;SDS011;9105;53.552;9.980;2023-10-09T05:34:30;4.53;;;2.20;;
17959;SDS011;9105;53.552;9.980;2023-10-09T05:37:02;4.30;;;2.15;;
17959;SDS011;9105;53.552;9.980;2023-10-09T05:39:47;4.57;;;2.25;;
17959;SDS011;9105;53.552;9.980;2023-10-09T05:42:25;5.40;;;1.52;;
17959;SDS011;9105;53.552;9.980;2023-10-09T05:45:07;4.75;;;2.28;;
17959;SDS011;9105;53.552;9.980;2023-10-09T05:47:46;5.93;;;2.30;;
17959;SDS011;9105;53.552;9.980;2023-10-09T05:50:21;4.95;;;2.30;;
17959;SDS011;9105;53.552;9.980;2023-10-09T05:58:04;8.63;;;2.30;;
17959;SDS011;9105;53.552;9.980;2023-10-09T06:00:49;5.65;;;2.40;;
17959;SDS011;9105;53.552;9.980;2023-10-09T06:03:34;5.93;;;2.47;;
17959;SDS011;9105;53.552;9.980;2023-10-09T06:06:14;6.65;;;2.97;;
17959;SDS011;9105;53.552;9.980;2023-10-09T06:09:04;7.10;;;2.80;;
17959;SDS011;9105;53.552;9.980;2023-10-09T06:11:36;6.95;;;2.70;;
17959;SDS011;9105;53.552;9.980;2023-10-09T06:14:01;6.38;;;2.90;;
17959;SDS011;9105;53.552;9.980;2023-10-09T06:16:38;7.53;;;2.90;;
17959;SDS011;9105;53.552;9.980;2023-10-09T06:19:08;7.43;;;2.75;;
17959;SDS011;9105;53.552;9.980;2023-10-09T06:21:45;8.32;;;3.10;;
17959;SDS011;9105;53.552;9.980;2023-10-09T06:24:29;7.38;;;3.00;;
17959;SDS011;9105;53.552;9.980;2023-10-09T06:27:08;5.72;;;2.95;;
17959;SDS011;9105;53.552;9.980;2023-10-09T06:32:06;6.78;;;3.40;;
17959;SDS011;9105;53.552;9.980;2023-10-09T06:34:44;5.88;;;2.97;;
17959;SDS011;9105;53.552;9.980;2023-10-09T06:37:40;6.25;;;3.05;;
17959;SDS011;9105;53.552;9.980;2023-10-09T06:40:25;8.15;;;3.40;;
17959;SDS011;9105;53.552;9.980;2023-10-09T06:43:09;5.65;;;3.00;;
17959;SDS011;9105;53.552;9.980;2023-10-09T06:45:40;7.53;;;3.20;;
17959;SDS011;9105;53.552;9.980;2023-10-09T06:48:19;7.63;;;3.30;;
17959;SDS011;9105;53.552;9.980;2023-10-09T06:51:05;7.97;;;3.38;;
17959;SDS011;9105;53.552;9.980;2023-10-09T06:53:57;11.77;;;3.33;;
17959;SDS011;9105;53.552;9.980;2023-10-09T06:56:27;6.88;;;3.50;;
17959;SDS011;9105;53.552;9.980;2023-10-09T06:58:59;6.63;;;3.33;;
17959;SDS011;9105;53.552;9.980;2023-10-09T07:01:44;5.37;;;3.60;;
17959;SDS011;9105;53.552;9.980;2023-10-09T07:04:11;11.48;;;4.00;;
17959;SDS011;9105;53.552;9.980;2023-10-09T07:06:55;10.27;;;4.05;;
17959;SDS011;9105;53.552;9.980;2023-10-09T07:09:22;8.00;;;3.25;;
17959;SDS011;9105;53.552;9.980;2023-10-09T07:11:51;9.30;;;3.80;;
17959;SDS011;9105;53.552;9.980;2023-10-09T07:16:58;10.00;;;4.55;;
17959;SDS011;9105;53.552;9.980;2023-10-09T07:19:46;8.20;;;4.07;;
17959;SDS011;9105;53.552;9.980;2023-10-09T07:22:11;10.73;;;4.90;;
17959;SDS011;9105;53.552;9.980;2023-10-09T07:27:22;11.45;;;4.70;;
17959;SDS011;9105;53.552;9.980;2023-10-09T07:30:07;11.02;;;5.00;;
17959;SDS011;9105;53.552;9.980;2023-10-09T07:32:53;8.40;;;4.18;;
17959;SDS011;9105;53.552;9.980;2023-10-09T07:35:22;9.55;;;4.88;;
17959;SDS011;9105;53.552;9.980;2023-10-09T07:38:16;7.72;;;4.60;;
17959;SDS011;9105;53.552;9.980;2023-10-09T07:40:46;8.63;;;4.63;;
17959;SDS011;9105;53.552;9.980;2023-10-09T07:43:21;9.40;;;4.82;;
17959;SDS011;9105;53.552;9.980;2023-10-09T07:46:11;7.43;;;4.40;;
17959;SDS011;9105;53.552;9.980;2023-10-09T07:49:02;7.10;;;4.25;;
17959;SDS011;9105;53.552;9.980;2023-10-09T07:51:35;10.02;;;4.38;;
17959;SDS011;9105;53.552;9.980;2023-10-09T07:54:01;8.48;;;4.68;;
17959;SDS011;9105;53.552;9.980;2023-10-09T07:56:36;7.00;;;4.15;;
17959;SDS011;9105;53.552;9.980;2023-10-09T07:59:09;6.25;;;4.32;;
17959;SDS011;9105;53.552;9.980;2023-10-09T08:01:41;7.63;;;4.70;;
17959;SDS011;9105;53.552;9.980;2023-10-09T08:04:21;7.60;;;4.35;;
17959;SDS011;9105;53.552;9.980;2023-10-09T08:07:10;6.97;;;4.50;;
17959;SDS011;9105;53.552;9.980;2023-10-09T08:09:44;7.22;;;4.40;;
17959;SDS011;9105;53.552;9.980;2023-10-09T08:12:36;7.18;;;4.55;;
17959;SDS011;9105;53.552;9.980;2023-10-09T08:15:14;8.90;;;4.32;;
17959;SDS011;9105;53.552;9.980;2023-10-09T08:20:28;8.38;;;4.63;;
17959;SDS011;9105;53.552;9.980;2023-10-09T08:23:21;7.22;;;4.07;;
17959;SDS011;9105;53.552;9.980;2023-10-09T08:25:59;7.05;;;4.30;;
17959;SDS011;9105;53.552;9.980;2023-10-09T08:28:37;5.80;;;4.00;;
17959;SDS011;9105;53.552;9.980;2023-10-09T08:31:08;7.15;;;4.35;;
17959;SDS011;9105;53.552;9.980;2023-10-09T08:33:44;7.55;;;4.45;;
17959;SDS011;9105;53.552;9.980;2023-10-09T08:36:10;7.70;;;4.80;;
17959;SDS011;9105;53.552;9.980;2023-10-09T08:38:39;7.43;;;4.65;;
17959;SDS011;9105;53.552;9.980;2023-10-09T08:41:07;6.15;;;4.40;;
17959;SDS011;9105;53.552;9.980;2023-10-09T08:43:49;8.23;;;5.00;;
17959;SDS011;9105;53.552;9.980;2023-10-09T08:46:17;5.78;;;4.18;;
17959;SDS011;9105;53.552;9.980;2023-10-09T08:51:11;9.07;;;5.20;;
17959;SDS011;9105;53.552;9.980;2023-10-09T08:53:36;6.43;;;4.68;;
17959;SDS011;9105;53.552;9.980;2023-10-09T08:56:11;6.03;;;4.53;;
17959;SDS011;9105;53.552;9.980;2023-10-09T09:01:20;7.60;;;4.60;;
17959;SDS011;9105;53.552;9.980;2023-10-09T09:03:46;6.28;;;4.57;;
17959;SDS011;9105;53.552;9.980;2023-10-09T09:06:13;6.53;;;5.00;;
17959;SDS011;9105;53.552;9.980;2023-10-09T09:08:39;7.82;;;4.95;;
17959;SDS011;9105;53.552;9.980;2023-10-09T09:11:15;5.63;;;4.45;;
17959;SDS011;9105;53.552;9.980;2023-10-09T09:13:48;6.13;;;4.72;;
17959;SDS011;9105;53.552;9.980;2023-10-09T09:16:30;7.85;;;5.13;;
17959;SDS011;9105;53.552;9.980;2023-10-09T09:19:06;7.38;;;4.55;;
17959;SDS011;9105;53.552;9.980;2023-10-09T09:26:57;6.50;;;4.63;;
17959;SDS011;9105;53.552;9.980;2023-10-09T09:32:06;5.57;;;4.68;;
17959;SDS011;9105;53.552;9.980;2023-10-09T09:34:52;8.52;;;5.28;;
17959;SDS011;9105;53.552;9.980;2023-10-09T09:37:29;4.25;;;3.72;;
17959;SDS011;9105;53.552;9.980;2023-10-09T09:39:59;5.68;;;4.95;;
17959;SDS011;9105;53.552;9.980;2023-10-09T09:42:27;6.40;;;4.82;;
17959;SDS011;9105;53.552;9.980;2023-10-09T09:44:53;6.78;;;4.43;;
17959;SDS011;9105;53.552;9.980;2023-10-09T09:47:19;10.90;;;5.78;;
17959;SDS011;9105;53.552;9.980;2023-10-09T09:49:55;8.35;;;5.30;;
17959;SDS011;9105;53.552;9.980;2023-10-09T09:52:36;16.67;;;5.65;;
17959;SDS011;9105;53.552;9.980;2023-10-09T09:55:06;17.20;;;5.85;;
17959;SDS011;9105;53.552;9.980;2023-10-09T09:57:40;8.98;;;5.53;;
17959;SDS011;9105;53.552;9.980;2023-10-09T10:00:06;6.15;;;4.63;;
17959;SDS011;9105;53.552;9.980;2023-10-09T10:03:01;4.68;;;3.78;;
17959;SDS011;9105;53.552;9.980;2023-10-09T10:05:31;6.97;;;4.28;;
17959;SDS011;9105;53.552;9.980;2023-10-09T10:07:59;6.15;;;4.35;;
17959;SDS011;9105;53.552;9.980;2023-10-09T10:10:40;6.07;;;4.63;;
17959;SDS011;9105;53.552;9.980;2023-10-09T10:13:17;6.40;;;4.43;;
17959;SDS011;9105;53.552;9.980;2023-10-09T10:16:12;6.15;;;4.18;;
17959;SDS011;9105;53.552;9.980;2023-10-09T10:21:35;5.22;;;3.83;;
17959;SDS011;9105;53.552;9.980;2023-10-09T10:29:43;4.85;;;3.55;;
17959;SDS011;9105;53.552;9.980;2023-10-09T10:32:11;5.18;;;3.72;;
17959;SDS011;9105;53.552;9.980;2023-10-09T10:34:55;5.20;;;3.63;;
17959;SDS011;9105;53.552;9.980;2023-10-09T10:37:21;4.25;;;3.00;;
17959;SDS011;9105;53.552;9.980;2023-10-09T10:40:04;4.25;;;3.22;;
17959;SDS011;9105;53.552;9.980;2023-10-09T10:42:47;3.40;;;2.83;;
17959;SDS011;9105;53.552;9.980;2023-10-09T10:45:34;4.70;;;3.33;;
17959;SDS011;9105;53.552;9.980;2023-10-09T10:48:01;5.20;;;3.20;;
17959;SDS011;9105;53.552;9.980;2023-10-09T10:50:32;3.60;;;3.10;;
17959;SDS011;9105;53.552;9.980;2023-10-09T10:53:13;3.13;;;2.72;;
17959;SDS011;9105;53.552;9.980;2023-10-09T10:55:53;3.85;;;3.10;;
17959;SDS011;9105;53.552;9.980;2023-10-09T10:58:21;4.57;;;3.10;;
17959;SDS011;9105;53.552;9.980;2023-10-09T11:00:53;2.97;;;2.67;;
17959;SDS011;9105;53.552;9.980;2023-10-09T11:03:23;4.70;;;3.00;;
17959;SDS011;9105;53.552;9.980;2023-10-09T11:05:54;3.67;;;2.72;;
17959;SDS011;9105;53.552;9.980;2023-10-09T11:08:24;4.07;;;2.83;;
17959;SDS011;9105;53.552;9.980;2023-10-09T11:11:12;3.50;;;3.08;;
17959;SDS011;9105;53.552;9.980;2023-10-09T11:13:41;4.85;;;2.67;;
17959;SDS011;9105;53.552;9.980;2023-10-09T11:16:22;2.97;;;2.47;;
17959;SDS011;9105;53.552;9.980;2023-10-09T11:19:00;4.10;;;3.05;;
17959;SDS011;9105;53.552;9.980;2023-10-09T11:21:37;4.00;;;2.83;;
17959;SDS011;9105;53.552;9.980;2023-10-09T11:24:06;2.60;;;2.40;;
17959;SDS011;9105;53.552;9.980;2023-10-09T11:26:50;3.47;;;2.92;;
17959;SDS011;9105;53.552;9.980;2023-10-09T11:29:20;3.03;;;2.70;;
17959;SDS011;9105;53.552;9.980;2023-10-09T11:32:05;3.58;;;2.70;;
17959;SDS011;9105;53.552;9.980;2023-10-09T11:34:34;3.45;;;2.72;;
17959;SDS011;9105;53.552;9.980;2023-10-09T11:37:02;3.65;;;2.80;;
17959;SDS011;9105;53.552;9.980;2023-10-09T11:39:38;3.50;;;2.90;;
17959;SDS011;9105;53.552;9.980;2023-10-09T11:42:30;3.25;;;2.60;;
17959;SDS011;9105;53.552;9.980;2023-10-09T11:45:03;2.70;;;2.38;;
17959;SDS011;9105;53.552;9.980;2023-10-09T11:47:47;3.15;;;2.60;;
17959;SDS011;9105;53.552;9.980;2023-10-09T11:53:14;3.72;;;2.72;;
17959;SDS011;9105;53.552;9.980;2023-10-09T11:55:46;2.80;;;2.25;;
17959;SDS011;9105;53.552;9.980;2023-10-09T12:00:51;3.13;;;2.50;;
17959;SDS011;9105;53.552;9.980;2023-10-09T12:03:22;3.25;;;2.40;;
17959;SDS011;9105;53.552;9.980;2023-10-09T12:05:54;2.42;;;2.20;;
17959;SDS011;9105;53.552;9.980;2023-10-09T12:08:21;2.30;;;2.10;;
17959;SDS011;9105;53.552;9.980;2023-10-09T12:10:54;2.22;;;1.92;;
17959;SDS011;9105;53.552;9.980;2023-10-09T12:13:22;1.90;;;1.70;;
17959;SDS011;9105;53.552;9.980;2023-10-09T12:15:49;2.30;;;1.50;;
17959;SDS011;9105;53.552;9.980;2023-10-09T12:18:21;2.80;;;2.00;;
17959;SDS011;9105;53.552;9.980;2023-10-09T12:20:48;3.40;;;1.70;;
17959;SDS011;9105;53.552;9.980;2023-10-09T12:23:18;2.08;;;1.60;;
17959;SDS011;9105;53.552;9.980;2023-10-09T12:25:44;2.28;;;1.85;;
17959;SDS011;9105;53.552;9.980;2023-10-09T12:28:10;7.05;;;2.58;;
17959;SDS011;9105;53.552;9.980;2023-10-09T12:30:37;2.50;;;1.85;;
17959;SDS011;9105;53.552;9.980;2023-10-09T12:33:05;2.58;;;1.85;;
17959;SDS011;9105;53.552;9.980;2023-10-09T12:35:35;3.55;;;1.95;;
17959;SDS011;9105;53.552;9.980;2023-10-09T12:38:04;2.90;;;2.30;;
17959;SDS011;9105;53.552;9.980;2023-10-09T12:40:34;2.33;;;2.13;;
17959;SDS011;9105;53.552;9.980;2023-10-09T12:43:01;3.17;;;2.28;;
17959;SDS011;9105;53.552;9.980;2023-10-09T12:45:26;3.95;;;2.30;;
17959;SDS011;9105;53.552;9.980;2023-10-09T12:47:53;1.85;;;1.67;;
17959;SDS011;9105;53.552;9.980;2023-10-09T12:50:19;2.22;;;1.88;;
17959;SDS011;9105;53.552;9.980;2023-10-09T12:52:54;3.85;;;2.20;;
17959;SDS011;9105;53.552;9.980;2023-10-09T12:55:27;2.40;;;2.20;;
17959;SDS011;9105;53.552;9.980;2023-10-09T12:58:02;2.78;;;2.47;;
17959;SDS011;9105;53.552;9.980;2023-10-09T13:00:34;2.90;;;2.55;;
17959;SDS011;9105;53.552;9.980;2023-10-09T13:03:03;2.28;;;1.80;;
17959;SDS011;9105;53.552;9.980;2023-10-09T13:05:39;3.75;;;2.63;;
17959;SDS011;9105;53.552;9.980;2023-10-09T13:08:17;2.97;;;2.20;;
17959;SDS011;9105;53.552;9.980;2023-10-09T13:11:04;3.95;;;3.00;;
17959;SDS011;9105;53.552;9.980;2023-10-09T13:13:38;1.97;;;1.40;;
17959;SDS011;9105;53.552;9.980;2023-10-09T13:16:27;2.95;;;2.05;;
17959;SDS011;9105;53.552;9.980;2023-10-09T13:18:55;3.22;;;2.30;;
17959;SDS011;9105;53.552;9.980;2023-10-09T13:21:23;2.20;;;1.92;;
17959;SDS011;9105;53.552;9.980;2023-10-09T13:23:49;3.40;;;2.70;;
17959;SDS011;9105;53.552;9.980;2023-10-09T13:26:19;15.82;;;3.45;;
17959;SDS011;9105;53.552;9.980;2023-10-09T13:29:00;3.53;;;2.50;;
17959;SDS011;9105;53.552;9.980;2023-10-09T13:31:26;3.45;;;2.45;;
17959;SDS011;9105;53.552;9.980;2023-10-09T13:33:55;2.40;;;2.13;;
17959;SDS011;9105;53.552;9.980;2023-10-09T13:36:21;26.17;;;3.83;;
17959;SDS011;9105;53.552;9.980;2023-10-09T13:38:57;2.28;;;2.08;;
17959;SDS011;9105;53.552;9.980;2023-10-09T13:41:43;2.20;;;2.00;;
17959;SDS011;9105;53.552;9.980;2023-10-09T13:44:09;2.05;;;1.85;;
17959;SDS011;9105;53.552;9.980;2023-10-09T13:46:34;2.60;;;2.03;;
17959;SDS011;9105;53.552;9.980;2023-10-09T13:49:06;2.30;;;2.10;;
17959;SDS011;9105;53.552;9.980;2023-10-09T13:51:40;3.80;;;2.83;;
17959;SDS011;9105;53.552;9.980;2023-10-09T13:54:12;4.20;;;2.55;;
17959;SDS011;9105;53.552;9.980;2023-10-09T13:56:53;3.42;;;3.13;;
17959;SDS011;9105;53.552;9.980;2023-10-09T13:59:22;3.35;;;3.03;;
17959;SDS011;9105;53.552;9.980;2023-10-09T14:01:50;5.38;;;2.97;;
17959;SDS011;9105;53.552;9.980;2023-10-09T14:04:16;4.70;;;3.50;;
17959;SDS011;9105;53.552;9.980;2023-10-09T14:06:45;3.13;;;2.83;;
17959;SDS011;9105;53.552;9.980;2023-10-09T14:09:11;3.95;;;3.33;;
17959;SDS011;9105;53.552;9.980;2023-10-09T14:11:56;3.40;;;2.70;;
17959;SDS011;9105;53.552;9.980;2023-10-09T14:14:41;3.33;;;3.03;;
17959;SDS011;9105;53.552;9.980;2023-10-09T14:17:14;4.18;;;3.65;;
17959;SDS011;9105;53.552;9.980;2023-10-09T14:19:54;4.75;;;3.50;;
17959;SDS011;9105;53.552;9.980;2023-10-09T14:22:21;5.68;;;4.00;;
17959;SDS011;9105;53.552;9.980;2023-10-09T14:24:51;4.25;;;3.85;;
17959;SDS011;9105;53.552;9.980;2023-10-09T14:29:49;4.90;;;3.90;;
17959;SDS011;9105;53.552;9.980;2023-10-09T14:32:14;4.63;;;4.20;;
17959;SDS011;9105;53.552;9.980;2023-10-09T14:34:41;5.18;;;4.68;;
17959;SDS011;9105;53.552;9.980;2023-10-09T14:37:16;5.07;;;4.20;;
17959;SDS011;9105;53.552;9.980;2023-10-09T14:39:47;4.80;;;4.30;;
17959;SDS011;9105;53.552;9.980;2023-10-09T14:42:16;6.97;;;5.35;;
17959;SDS011;9105;53.552;9.980;2023-10-09T14:44:42;5.32;;;4.70;;
17959;SDS011;9105;53.552;9.980;2023-10-09T14:47:10;6.10;;;5.20;;
17959;SDS011;9105;53.552;9.980;2023-10-09T14:49:35;5.25;;;4.30;;
17959;SDS011;9105;53.552;9.980;2023-10-09T14:52:09;6.82;;;5.60;;
17959;SDS011;9105;53.552;9.980;2023-10-09T14:54:35;9.43;;;6.50;;
17959;SDS011;9105;53.552;9.980;2023-10-09T14:57:00;7.55;;;6.32;;
17959;SDS011;9105;53.552;9.980;2023-10-09T14:59:31;9.30;;;7.45;;
17959;SDS011;9105;53.552;9.980;2023-10-09T15:01:58;9.15;;;6.97;;
17959;SDS011;9105;53.552;9.980;2023-10-09T15:04:24;8.75;;;6.55;;
17959;SDS011;9105;53.552;9.980;2023-10-09T15:06:51;17.55;;;14.32;;
17959;SDS011;9105;53.552;9.980;2023-10-09T15:09:17;17.90;;;14.35;;
17959;SDS011;9105;53.552;9.980;2023-10-09T15:11:53;12.18;;;9.13;;
17959;SDS011;9105;53.552;9.980;2023-10-09T15:14:19;9.73;;;8.13;;
17959;SDS011;9105;53.552;9.980;2023-10-09T15:16:46;8.27;;;6.28;;
17959;SDS011;9105;53.552;9.980;2023-10-09T15:19:12;11.00;;;9.40;;
17959;SDS011;9105;53.552;9.980;2023-10-09T15:21:38;7.88;;;7.07;;
17959;SDS011;9105;53.552;9.980;2023-10-09T15:24:10;11.48;;;7.40;;
17959;SDS011;9105;53.552;9.980;2023-10-09T15:26:44;7.60;;;6.45;;
17959;SDS011;9105;53.552;9.980;2023-10-09T15:29:20;8.68;;;6.22;;
17959;SDS011;9105;53.552;9.980;2023-10-09T15:31:53;6.95;;;5.97;;
17959;SDS011;9105;53.552;9.980;2023-10-09T15:34:19;5.97;;;5.38;;
17959;SDS011;9105;53.552;9.980;2023-10-09T15:36:45;6.18;;;5.57;;
17959;SDS011;9105;53.552;9.980;2023-10-09T15:39:14;7.40;;;6.28;;
17959;SDS011;9105;53.552;9.980;2023-10-09T15:41:44;8.48;;;6.70;;
17959;SDS011;9105;53.552;9.980;2023-10-09T15:44:11;8.30;;;6.25;;
17959;SDS011;9105;53.552;9.980;2023-10-09T15:46:38;6.75;;;6.05;;
17959;SDS011;9105;53.552;9.980;2023-10-09T15:49:04;12.13;;;8.45;;
17959;SDS011;9105;53.552;9.980;2023-10-09T15:51:32;11.40;;;7.45;;
17959;SDS011;9105;53.552;9.980;2023-10-09T15:53:57;11.32;;;7.60;;
17959;SDS011;9105;53.552;9.980;2023-10-09T15:56:24;15.18;;;8.65;;
17959;SDS011;9105;53.552;9.980;2023-10-09T15:58:49;9.75;;;7.15;;
17959;SDS011;9105;53.552;9.980;2023-10-09T16:01:16;14.23;;;9.38;;
17959;SDS011;9105;53.552;9.980;2023-10-09T16:03:45;21.02;;;11.32;;
17959;SDS011;9105;53.552;9.980;2023-10-09T16:06:13;15.30;;;10.38;;
17959;SDS011;9105;53.552;9.980;2023-10-09T16:08:41;10.25;;;7.38;;
17959;SDS011;9105;53.552;9.980;2023-10-09T16:11:08;11.27;;;8.18;;
17959;SDS011;9105;53.552;9.980;2023-10-09T16:13:34;14.57;;;9.50;;
17959;SDS011;9105;53.552;9.980;2023-10-09T16:16:00;8.40;;;7.30;;
17959;SDS011;9105;53.552;9.980;2023-10-09T16:18:26;12.80;;;9.18;;
17959;SDS011;9105;53.552;9.980;2023-10-09T16:20:55;12.23;;;9.27;;
17959;SDS011;9105;53.552;9.980;2023-10-09T16:23:21;15.40;;;10.13;;
17959;SDS011;9105;53.552;9.980;2023-10-09T16:25:46;15.07;;;10.43;;
17959;SDS011;9105;53.552;9.980;2023-10-09T16:28:12;15.95;;;10.88;;
17959;SDS011;9105;53.552;9.980;2023-10-09T16:30:40;11.90;;;9.80;;
17959;SDS011;9105;53.552;9.980;2023-10-09T16:33:08;14.95;;;10.20;;
17959;SDS011;9105;53.552;9.980;2023-10-09T16:35:34;12.93;;;9.77;;
17959;SDS011;9105;53.552;9.980;2023-10-09T16:38:02;14.00;;;10.63;;
17959;SDS011;9105;53.552;9.980;2023-10-09T16:40:33;15.13;;;10.55;;
17959;SDS011;9105;53.552;9.980;2023-10-09T16:43:00;20.63;;;12.50;;